createdAt,value
2019-02-09T00:02:09.397Z,1.40
2019-02-09T00:04:41.112Z,1.20
2019-02-09T00:07:11.863Z,1.20
2019-02-09T00:09:41.700Z,1.10
2019-02-09T00:12:13.972Z,0.80
2019-02-09T00:14:46.094Z,0.60
2019-02-09T00:17:16.513Z,0.50
2019-02-09T00:19:47.347Z,0.40
2019-02-09T00:22:18.088Z,0.30
2019-02-09T00:24:47.944Z,0.20
2019-02-09T00:27:20.019Z,0.10
2019-02-09T00:29:51.369Z,0.00
2019-02-09T00:32:21.142Z,0.00
2019-02-09T00:34:51.004Z,-0.10
2019-02-09T00:37:20.722Z,-0.20
2019-02-09T00:39:50.923Z,-0.20
2019-02-09T00:42:20.827Z,-0.30
2019-02-09T00:44:52.007Z,-0.30
2019-02-09T00:47:21.983Z,-0.30
2019-02-09T00:49:52.391Z,-0.30
2019-02-09T00:52:23.392Z,-0.30
2019-02-09T00:54:54.196Z,-0.10
2019-02-09T00:57:24.624Z,-0.20
2019-02-09T00:59:54.706Z,-0.10
2019-02-09T01:02:25.562Z,0.10
2019-02-09T01:04:57.162Z,0.30
2019-02-09T01:07:26.551Z,0.70
2019-02-09T01:09:56.530Z,0.90
2019-02-09T01:12:27.451Z,0.80
2019-02-09T01:14:57.749Z,0.70
2019-02-09T01:17:29.240Z,0.70
2019-02-09T01:19:59.169Z,0.70
2019-02-09T01:22:30.080Z,0.60
2019-02-09T01:25:00.969Z,0.50
2019-02-09T01:27:31.634Z,0.40
2019-02-09T01:30:02.620Z,0.20
2019-02-09T01:32:33.842Z,0.10
2019-02-09T01:35:03.374Z,-0.10
2019-02-09T01:37:38.316Z,-0.20
2019-02-09T01:40:09.735Z,-0.30
2019-02-09T01:42:41.552Z,-0.40
2019-02-09T01:45:17.494Z,-0.50
2019-02-09T01:47:47.724Z,-0.60
2019-02-09T01:50:18.892Z,-0.60
2019-02-09T01:52:49.322Z,-0.70
2019-02-09T01:55:19.977Z,-0.70
2019-02-09T01:57:50.959Z,-0.70
2019-02-09T02:00:24.912Z,-0.60
2019-02-09T02:02:54.329Z,-0.60
2019-02-09T02:05:25.004Z,-0.60
2019-02-09T02:07:55.288Z,-0.60
2019-02-09T02:10:29.257Z,-0.60
2019-02-09T02:12:59.405Z,-0.70
2019-02-09T02:15:29.445Z,-0.70
2019-02-09T02:17:59.290Z,-0.80
2019-02-09T02:20:30.291Z,-0.80
2019-02-09T02:23:01.619Z,-0.80
2019-02-09T02:25:32.234Z,-0.90
2019-02-09T02:28:02.064Z,-0.90
2019-02-09T02:30:35.412Z,-0.90
2019-02-09T02:33:07.323Z,-0.90
2019-02-09T02:35:38.064Z,-0.90
2019-02-09T02:38:09.614Z,-0.90
2019-02-09T02:40:40.547Z,-0.90
2019-02-09T02:43:10.770Z,-0.90
2019-02-09T02:45:40.439Z,-0.90
2019-02-09T02:48:10.903Z,-1.00
2019-02-09T02:50:40.123Z,-1.10
2019-02-09T02:53:10.861Z,-1.20
2019-02-09T02:55:40.062Z,-1.30
2019-02-09T02:58:12.127Z,-1.40
2019-02-09T03:00:43.488Z,-1.30
2019-02-09T03:03:13.077Z,-1.30
2019-02-09T03:05:42.199Z,-1.20
2019-02-09T03:08:11.512Z,-1.20
2019-02-09T03:10:41.976Z,-1.20
2019-02-09T03:13:13.271Z,-1.30
2019-02-09T03:15:43.275Z,-1.30
2019-02-09T03:18:13.287Z,-1.20
2019-02-09T03:20:42.556Z,-1.30
2019-02-09T03:23:12.674Z,-1.30
2019-02-09T03:25:42.672Z,-1.20
2019-02-09T03:28:12.316Z,-1.30
2019-02-09T03:30:47.459Z,-1.30
2019-02-09T03:33:13.604Z,-1.30
2019-02-09T03:35:44.282Z,-1.30
2019-02-09T03:38:14.211Z,-1.40
2019-02-09T03:40:46.085Z,-1.40
2019-02-09T03:43:16.671Z,-1.40
2019-02-09T03:45:47.007Z,-1.40
2019-02-09T03:48:17.350Z,-1.50
2019-02-09T03:50:47.732Z,-1.60
2019-02-09T03:53:16.814Z,-1.60
2019-02-09T03:55:46.957Z,-1.60
2019-02-09T03:58:17.840Z,-1.60
2019-02-09T04:00:54.929Z,-1.70
2019-02-09T04:03:19.909Z,-1.70
2019-02-09T04:05:49.734Z,-1.80
2019-02-09T04:08:20.326Z,-1.80
2019-02-09T04:10:50.592Z,-1.70
2019-02-09T04:13:22.223Z,-1.60
2019-02-09T04:15:53.329Z,-1.70
2019-02-09T04:18:25.703Z,-1.70
2019-02-09T04:20:56.242Z,-1.70
2019-02-09T04:23:26.695Z,-1.80
2019-02-09T04:25:57.044Z,-1.80
2019-02-09T04:28:25.759Z,-1.80
2019-02-09T04:31:05.579Z,-1.80
2019-02-09T04:33:28.214Z,-1.70
2019-02-09T04:35:58.184Z,-1.60
2019-02-09T04:38:29.620Z,-1.50
2019-02-09T04:41:01.042Z,-1.40
2019-02-09T04:43:30.157Z,-1.40
2019-02-09T04:46:01.612Z,-1.50
2019-02-09T04:48:32.374Z,-1.40
2019-02-09T04:51:02.297Z,-1.50
2019-02-09T04:53:33.189Z,-1.60
2019-02-09T04:56:02.399Z,-1.70
2019-02-09T04:58:32.512Z,-1.70
2019-02-09T05:01:02.539Z,-1.50
2019-02-09T05:03:34.647Z,-1.50
2019-02-09T05:06:04.061Z,-1.50
2019-02-09T05:08:34.399Z,-1.60
2019-02-09T05:11:03.987Z,-1.60
2019-02-09T05:13:34.659Z,-1.40
2019-02-09T05:16:05.644Z,-1.20
2019-02-09T05:18:36.066Z,-1.30
2019-02-09T05:21:05.525Z,-1.40
2019-02-09T05:23:36.123Z,-1.50
2019-02-09T05:26:05.419Z,-1.60
2019-02-09T05:28:34.901Z,-1.70
2019-02-09T05:31:05.212Z,-1.80
2019-02-09T05:33:37.099Z,-2.00
2019-02-09T05:36:08.747Z,-2.00
2019-02-09T05:38:40.841Z,-2.10
2019-02-09T05:41:11.928Z,-2.10
2019-02-09T05:43:42.065Z,-2.00
2019-02-09T05:46:13.037Z,-1.90
2019-02-09T05:48:43.052Z,-1.80
2019-02-09T05:51:12.982Z,-1.80
2019-02-09T05:53:42.658Z,-1.80
2019-02-09T05:56:12.965Z,-1.80
2019-02-09T05:58:42.857Z,-1.80
2019-02-09T06:01:13.058Z,-1.80
2019-02-09T06:03:43.809Z,-1.70
2019-02-09T06:06:13.686Z,-1.80
2019-02-09T06:08:43.294Z,-1.90
2019-02-09T06:11:11.965Z,-2.00
2019-02-09T06:13:43.187Z,-2.00
2019-02-09T06:16:13.595Z,-1.90
2019-02-09T06:18:42.393Z,-1.90
2019-02-09T06:21:13.060Z,-1.90
2019-02-09T06:23:43.331Z,-1.90
2019-02-09T06:26:13.015Z,-1.90
2019-02-09T06:28:42.673Z,-1.90
2019-02-09T06:31:11.962Z,-2.00
2019-02-09T06:33:41.339Z,-2.00
2019-02-09T06:36:12.459Z,-1.90
2019-02-09T06:38:42.342Z,-2.00
2019-02-09T06:41:12.702Z,-2.00
2019-02-09T06:43:42.894Z,-1.90
2019-02-09T06:46:14.102Z,-1.90
2019-02-09T06:48:44.327Z,-1.90
2019-02-09T06:51:14.902Z,-1.90
2019-02-09T06:53:44.344Z,-1.70
2019-02-09T06:56:14.604Z,-1.50
2019-02-09T06:58:45.532Z,-1.30
2019-02-09T07:01:15.779Z,-1.10
2019-02-09T07:03:46.585Z,-0.70
2019-02-09T07:06:15.848Z,-0.50
2019-02-09T07:08:46.902Z,-0.20
2019-02-09T07:11:17.557Z,-0.10
2019-02-09T07:13:48.667Z,0.10
2019-02-09T07:16:18.264Z,0.30
2019-02-09T07:18:49.544Z,0.30
2019-02-09T07:21:20.673Z,0.50
2019-02-09T07:23:50.001Z,0.70
2019-02-09T07:26:21.027Z,1.00
2019-02-09T07:28:50.509Z,0.90
2019-02-09T07:31:21.332Z,0.80
2019-02-09T07:33:54.613Z,0.60
2019-02-09T07:36:24.145Z,0.40
2019-02-09T07:38:54.391Z,0.60
2019-02-09T07:41:25.229Z,0.80
2019-02-09T07:43:54.672Z,1.10
2019-02-09T07:46:23.851Z,1.10
2019-02-09T07:48:53.738Z,1.20
2019-02-09T07:51:29.471Z,1.40
2019-02-09T07:54:00.411Z,1.60
2019-02-09T07:56:29.472Z,1.80
2019-02-09T07:59:00.050Z,2.10
2019-02-09T08:01:29.562Z,2.60
2019-02-09T08:03:59.889Z,2.80
2019-02-09T08:06:29.751Z,2.80
2019-02-09T08:08:59.865Z,2.70
2019-02-09T08:11:30.026Z,2.80
2019-02-09T08:14:00.902Z,2.80
2019-02-09T08:16:29.891Z,2.60
2019-02-09T08:19:01.244Z,2.50
2019-02-09T08:21:31.322Z,2.30
2019-02-09T08:24:01.132Z,2.30
2019-02-09T08:26:31.996Z,2.40
2019-02-09T08:29:02.226Z,2.70
2019-02-09T08:31:31.947Z,3.10
2019-02-09T08:34:02.218Z,3.60
2019-02-09T08:36:32.378Z,4.00
2019-02-09T08:39:01.603Z,4.50
2019-02-09T08:41:33.033Z,4.80
2019-02-09T08:44:04.142Z,5.10
2019-02-09T08:46:34.485Z,5.40
2019-02-09T08:49:04.181Z,5.40
2019-02-09T08:51:34.641Z,5.50
2019-02-09T08:54:07.442Z,5.80
2019-02-09T08:56:37.533Z,5.80
2019-02-09T08:59:07.622Z,6.10
2019-02-09T09:01:37.901Z,6.40
2019-02-09T09:04:07.254Z,6.70
2019-02-09T09:06:37.228Z,6.90
2019-02-09T09:09:11.514Z,7.20
2019-02-09T09:11:43.062Z,7.50
2019-02-09T09:14:14.634Z,7.90
2019-02-09T09:16:44.824Z,7.80
2019-02-09T09:19:15.333Z,7.90
2019-02-09T09:21:45.292Z,8.10
2019-02-09T09:24:14.689Z,8.50
2019-02-09T09:26:45.625Z,9.00
2019-02-09T09:29:17.442Z,9.20
2019-02-09T09:31:48.967Z,9.30
2019-02-09T09:34:18.429Z,9.50
2019-02-09T09:36:47.967Z,9.80
2019-02-09T09:39:20.217Z,9.80
2019-02-09T09:41:50.599Z,10.00
2019-02-09T09:44:22.150Z,10.20
2019-02-09T09:46:52.410Z,10.50
2019-02-09T09:49:23.014Z,10.90
2019-02-09T09:51:53.616Z,11.20
2019-02-09T09:54:23.207Z,11.40
2019-02-09T09:56:54.123Z,11.40
2019-02-09T09:59:23.772Z,11.90
2019-02-09T10:01:54.557Z,11.60
2019-02-09T10:04:24.794Z,11.60
2019-02-09T10:06:54.540Z,11.90
2019-02-09T10:09:24.810Z,12.00
2019-02-09T10:11:55.510Z,12.50
2019-02-09T10:14:26.937Z,13.00
2019-02-09T10:16:57.727Z,13.00
2019-02-09T10:19:28.701Z,13.00
2019-02-09T10:21:58.019Z,13.10
2019-02-09T10:24:28.319Z,13.80
2019-02-09T10:26:57.781Z,14.00
2019-02-09T10:29:27.760Z,14.20
2019-02-09T10:31:59.167Z,14.30
2019-02-09T10:34:29.304Z,14.30
2019-02-09T10:36:58.147Z,14.40
2019-02-09T10:39:28.714Z,14.60
2019-02-09T10:41:58.097Z,14.60
2019-02-09T10:44:29.114Z,14.40
2019-02-09T10:47:01.396Z,14.50
2019-02-09T10:49:31.687Z,14.80
2019-02-09T10:52:02.582Z,15.10
2019-02-09T10:54:35.323Z,15.00
2019-02-09T10:57:05.642Z,15.00
2019-02-09T10:59:35.202Z,15.60
2019-02-09T11:02:05.095Z,15.80
2019-02-09T11:04:35.263Z,15.60
2019-02-09T11:07:06.974Z,15.60
2019-02-09T11:09:38.704Z,15.90
2019-02-09T11:12:08.592Z,16.20
2019-02-09T11:14:38.594Z,15.70
2019-02-09T11:17:07.834Z,16.10
2019-02-09T11:19:38.294Z,16.70
2019-02-09T11:22:07.942Z,16.00
2019-02-09T11:24:37.572Z,16.10
2019-02-09T11:27:07.520Z,16.30
2019-02-09T11:29:37.878Z,16.40
2019-02-09T11:32:11.663Z,16.10
2019-02-09T11:34:43.904Z,15.70
2019-02-09T11:37:13.474Z,16.00
2019-02-09T11:39:43.527Z,15.90
2019-02-09T11:42:15.004Z,16.10
2019-02-09T11:44:44.550Z,16.40
2019-02-09T11:47:16.894Z,16.80
2019-02-09T11:49:48.122Z,16.90
2019-02-09T11:52:18.155Z,17.40
2019-02-09T11:54:48.548Z,17.30
2019-02-09T11:57:20.297Z,17.10
2019-02-09T11:59:50.763Z,17.30
2019-02-09T12:02:21.550Z,17.70
2019-02-09T12:04:51.074Z,17.80
2019-02-09T12:07:20.824Z,17.70
2019-02-09T12:09:50.070Z,18.10
2019-02-09T12:12:20.674Z,18.40
2019-02-09T12:14:51.724Z,18.50
2019-02-09T12:17:22.112Z,18.70
2019-02-09T12:19:53.009Z,18.70
2019-02-09T12:22:23.027Z,18.30
2019-02-09T12:24:53.997Z,18.50
2019-02-09T12:27:24.416Z,18.40
2019-02-09T12:29:56.621Z,18.90
2019-02-09T12:32:28.457Z,18.70
2019-02-09T12:34:58.467Z,19.00
2019-02-09T12:37:29.151Z,19.00
2019-02-09T12:39:58.137Z,19.10
2019-02-09T12:42:28.342Z,18.60
2019-02-09T12:44:58.024Z,18.40
2019-02-09T12:47:27.882Z,17.90
2019-02-09T12:49:59.197Z,17.30
2019-02-09T12:52:28.970Z,17.30
2019-02-09T12:54:58.725Z,16.60
2019-02-09T12:57:30.632Z,16.10
2019-02-09T13:00:02.745Z,15.60
2019-02-09T13:02:32.292Z,15.40
2019-02-09T13:05:04.749Z,15.20
2019-02-09T13:07:34.983Z,15.00
2019-02-09T13:10:06.645Z,15.30
2019-02-09T13:12:37.013Z,15.90
2019-02-09T13:15:11.348Z,16.40
2019-02-09T13:17:42.276Z,16.70
2019-02-09T13:20:16.537Z,16.80
2019-02-09T13:22:48.294Z,16.40
2019-02-09T13:25:19.846Z,16.10
2019-02-09T13:27:50.370Z,16.00
2019-02-09T13:30:25.964Z,16.20
2019-02-09T13:32:56.192Z,16.10
2019-02-09T13:35:28.537Z,16.20
2019-02-09T13:37:58.197Z,15.90
2019-02-09T13:40:29.304Z,15.70
2019-02-09T13:42:59.512Z,15.10
2019-02-09T13:45:33.917Z,14.70
2019-02-09T13:48:04.429Z,14.50
2019-02-09T13:50:35.522Z,14.80
2019-02-09T13:53:08.658Z,15.40
2019-02-09T13:55:39.686Z,15.60
2019-02-09T13:58:09.780Z,16.10
2019-02-09T14:00:44.732Z,16.40
2019-02-09T14:03:14.598Z,16.40
2019-02-09T14:05:46.192Z,16.30
2019-02-09T14:08:15.340Z,16.50
2019-02-09T14:10:48.013Z,16.40
2019-02-09T14:13:17.876Z,17.00
2019-02-09T14:15:49.873Z,17.10
2019-02-09T14:18:20.230Z,16.90
2019-02-09T14:20:50.202Z,17.30
2019-02-09T14:23:20.675Z,17.50
2019-02-09T14:25:51.129Z,17.90
2019-02-09T14:28:25.484Z,17.50
2019-02-09T14:30:55.686Z,16.80
2019-02-09T14:33:26.297Z,16.00
2019-02-09T14:36:00.375Z,15.60
2019-02-09T14:38:31.384Z,15.10
2019-02-09T14:41:02.190Z,14.90
2019-02-09T14:43:33.166Z,14.60
2019-02-09T14:46:04.270Z,14.40
2019-02-09T14:48:35.204Z,14.30
2019-02-09T14:51:07.145Z,14.20
2019-02-09T14:53:39.717Z,14.20
2019-02-09T14:56:08.963Z,14.10
2019-02-09T14:58:38.816Z,14.20
2019-02-09T15:01:08.862Z,14.20
2019-02-09T15:03:39.439Z,14.30
2019-02-09T15:06:12.223Z,14.30
2019-02-09T15:08:41.770Z,14.30
2019-02-09T15:11:12.534Z,14.20
2019-02-09T15:13:44.838Z,14.00
2019-02-09T15:16:37.450Z,13.90
2019-02-09T15:19:10.831Z,13.60
2019-02-09T15:21:41.291Z,13.40
2019-02-09T15:24:11.589Z,13.20
2019-02-09T15:26:41.256Z,13.10
2019-02-09T15:29:11.315Z,13.00
2019-02-09T15:31:41.447Z,12.90
2019-02-09T15:34:11.509Z,12.90
2019-02-09T15:36:42.897Z,12.90
2019-02-09T15:39:13.674Z,12.90
2019-02-09T15:41:43.342Z,12.80
2019-02-09T15:44:13.672Z,12.90
2019-02-09T15:46:44.615Z,12.80
2019-02-09T15:49:15.139Z,12.80
2019-02-09T15:51:44.339Z,12.70
2019-02-09T15:54:15.625Z,12.80
2019-02-09T15:56:49.372Z,12.70
2019-02-09T15:59:21.475Z,12.70
2019-02-09T16:01:51.248Z,12.50
2019-02-09T16:04:20.100Z,12.40
2019-02-09T16:06:50.727Z,12.30
2019-02-09T16:09:21.063Z,12.20
2019-02-09T16:11:51.057Z,12.00
2019-02-09T16:14:22.267Z,11.90
2019-02-09T16:16:53.343Z,11.70
2019-02-09T16:19:22.587Z,11.70
2019-02-09T16:21:52.947Z,11.60
2019-02-09T16:24:22.936Z,11.40
2019-02-09T16:26:52.926Z,11.40
2019-02-09T16:29:22.586Z,11.30
2019-02-09T16:31:53.932Z,11.20
2019-02-09T16:34:25.481Z,11.20
2019-02-09T16:36:56.407Z,11.10
2019-02-09T16:39:26.457Z,11.00
2019-02-09T16:42:01.543Z,11.00
2019-02-09T16:44:31.793Z,11.00
2019-02-09T16:47:04.459Z,11.10
2019-02-09T16:49:36.734Z,11.10
2019-02-09T16:52:07.527Z,11.10
2019-02-09T16:54:40.439Z,11.00
2019-02-09T16:57:12.257Z,11.00
2019-02-09T16:59:43.847Z,10.90
2019-02-09T17:02:18.064Z,10.90
2019-02-09T17:04:49.334Z,10.80
2019-02-09T17:07:19.913Z,10.80
2019-02-09T17:09:49.955Z,10.60
2019-02-09T17:12:20.018Z,10.50
2019-02-09T17:14:49.995Z,10.50
2019-02-09T17:17:22.892Z,10.50
2019-02-09T17:19:53.303Z,10.40
2019-02-09T17:22:23.415Z,10.40
2019-02-09T17:24:53.373Z,10.20
2019-02-09T17:27:26.850Z,10.20
2019-02-09T17:29:57.070Z,10.10
2019-02-09T17:32:29.777Z,10.00
2019-02-09T17:35:00.564Z,10.00
2019-02-09T17:37:31.854Z,10.00
2019-02-09T17:40:07.403Z,9.90
2019-02-09T17:42:38.742Z,9.90
2019-02-09T17:45:16.047Z,9.90
2019-02-09T17:47:48.920Z,9.70
2019-02-09T17:50:18.939Z,9.40
2019-02-09T17:52:49.072Z,9.10
2019-02-09T17:55:21.459Z,8.80
2019-02-09T17:57:52.682Z,8.60
2019-02-09T18:00:32.644Z,8.60
2019-02-09T18:03:02.738Z,8.40
2019-02-09T18:05:32.832Z,8.40
2019-02-09T18:08:03.157Z,8.20
2019-02-09T18:10:32.735Z,8.20
2019-02-09T18:13:04.194Z,8.10
2019-02-09T18:15:35.119Z,8.10
2019-02-09T18:18:06.920Z,8.00
2019-02-09T18:20:39.168Z,8.10
2019-02-09T18:23:09.182Z,8.10
2019-02-09T18:25:39.115Z,8.20
2019-02-09T18:28:10.948Z,8.30
2019-02-09T18:30:41.097Z,8.20
2019-02-09T18:33:11.891Z,8.20
2019-02-09T18:35:42.275Z,8.20
2019-02-09T18:38:13.227Z,8.20
2019-02-09T18:40:44.610Z,8.20
2019-02-09T18:43:15.488Z,8.20
2019-02-09T18:45:45.556Z,8.10
2019-02-09T18:48:15.672Z,8.10
2019-02-09T18:50:47.211Z,8.00
2019-02-09T18:53:16.909Z,7.90
2019-02-09T18:55:49.363Z,7.80
2019-02-09T18:58:20.287Z,7.90
2019-02-09T19:00:50.822Z,7.80
2019-02-09T19:03:21.617Z,7.70
2019-02-09T19:05:51.235Z,7.60
2019-02-09T19:08:21.086Z,7.40
2019-02-09T19:10:51.170Z,7.30
2019-02-09T19:13:22.250Z,7.40
2019-02-09T19:15:54.617Z,7.40
2019-02-09T19:18:25.176Z,7.30
2019-02-09T19:20:58.350Z,7.20
2019-02-09T19:23:28.538Z,7.20
2019-02-09T19:25:59.731Z,7.10
2019-02-09T19:28:30.689Z,7.00
2019-02-09T19:31:02.347Z,6.90
2019-02-09T19:33:33.112Z,6.80
2019-02-09T19:36:05.234Z,6.70
2019-02-09T19:38:36.686Z,6.60
2019-02-09T19:41:07.598Z,6.50
2019-02-09T19:43:38.946Z,6.40
2019-02-09T19:46:13.147Z,6.30
2019-02-09T19:48:45.709Z,6.30
2019-02-09T19:51:16.030Z,6.20
2019-02-09T19:53:47.081Z,6.10
2019-02-09T19:56:20.951Z,6.10
2019-02-09T19:58:52.811Z,6.00
2019-02-09T20:01:24.914Z,6.00
2019-02-09T20:03:57.945Z,6.10
2019-02-09T20:06:28.526Z,6.20
2019-02-09T20:09:00.764Z,6.20
2019-02-09T20:11:36.915Z,6.20
2019-02-09T20:14:09.287Z,6.30
2019-02-09T20:16:41.573Z,6.20
2019-02-09T20:19:17.747Z,6.10
2019-02-09T20:21:49.970Z,6.10
2019-02-09T20:24:22.049Z,6.10
2019-02-09T20:26:56.298Z,6.10
2019-02-09T20:29:28.565Z,6.10
2019-02-09T20:32:00.287Z,6.10
2019-02-09T20:34:34.985Z,6.10
2019-02-09T20:37:13.797Z,6.00
2019-02-09T20:39:50.400Z,6.10
2019-02-09T20:42:24.104Z,6.00
2019-02-09T20:44:54.845Z,5.90
2019-02-09T20:47:32.037Z,5.70
2019-02-09T20:50:03.235Z,5.60
2019-02-09T20:52:37.422Z,5.90
2019-02-09T20:55:09.779Z,5.90
2019-02-09T20:57:42.591Z,5.90
2019-02-09T21:00:18.274Z,5.90
2019-02-09T21:02:50.756Z,5.90
2019-02-09T21:05:26.684Z,6.00
2019-02-09T21:07:58.646Z,6.00
2019-02-09T21:10:32.187Z,5.90
2019-02-09T21:13:04.173Z,5.90
2019-02-09T21:15:37.435Z,5.80
2019-02-09T21:18:08.416Z,5.70
2019-02-09T21:20:41.646Z,5.60
2019-02-09T21:23:12.494Z,5.50
2019-02-09T21:25:45.073Z,5.40
2019-02-09T21:28:17.215Z,5.30
2019-02-09T21:30:47.671Z,5.30
2019-02-09T21:33:19.720Z,5.20
2019-02-09T21:35:51.109Z,5.10
2019-02-09T21:38:20.164Z,5.00
2019-02-09T21:40:51.186Z,4.90
2019-02-09T21:43:22.623Z,4.90
2019-02-09T21:45:53.382Z,4.80
2019-02-09T21:48:23.289Z,4.80
2019-02-09T21:50:54.196Z,4.80
2019-02-09T21:53:24.108Z,4.80
2019-02-09T21:55:57.004Z,4.90
2019-02-09T21:58:27.290Z,4.90
2019-02-09T22:00:58.633Z,5.00
2019-02-09T22:03:30.130Z,5.00
2019-02-09T22:06:03.529Z,5.00
2019-02-09T22:08:33.390Z,5.10
2019-02-09T22:11:05.122Z,5.30
2019-02-09T22:13:37.007Z,5.40
2019-02-09T22:16:08.606Z,5.40
2019-02-09T22:18:39.173Z,5.30
2019-02-09T22:21:11.373Z,5.20
2019-02-09T22:23:42.652Z,5.20
2019-02-09T22:26:13.486Z,5.20
2019-02-09T22:28:44.255Z,5.20
2019-02-09T22:31:21.720Z,5.10
2019-02-09T22:33:45.700Z,5.10
2019-02-09T22:36:15.772Z,5.00
2019-02-09T22:38:45.222Z,5.10
2019-02-09T22:41:16.022Z,5.00
2019-02-09T22:43:46.780Z,5.00
2019-02-09T22:46:17.225Z,4.90
2019-02-09T22:48:48.358Z,4.90
2019-02-09T22:51:21.534Z,4.90
2019-02-09T22:53:52.043Z,4.90
2019-02-09T22:56:22.113Z,5.00
2019-02-09T22:58:52.439Z,5.10
2019-02-09T23:01:54.964Z,5.10
2019-02-09T23:04:47.507Z,4.90
2019-02-09T23:07:26.354Z,4.70
2019-02-09T23:09:57.334Z,4.60
2019-02-09T23:12:28.822Z,4.70
2019-02-09T23:14:58.266Z,4.80
2019-02-09T23:17:28.262Z,4.70
2019-02-09T23:19:57.287Z,4.70
2019-02-09T23:22:27.644Z,4.70
2019-02-09T23:24:58.244Z,4.70
2019-02-09T23:27:28.232Z,4.80
2019-02-09T23:29:58.136Z,4.80
2019-02-09T23:32:29.755Z,4.70
2019-02-09T23:34:59.975Z,4.60
2019-02-09T23:37:32.835Z,4.60
2019-02-09T23:40:05.214Z,4.60
2019-02-09T23:42:36.236Z,4.60
2019-02-09T23:45:07.014Z,4.70
2019-02-09T23:47:37.314Z,4.70
2019-02-09T23:50:09.012Z,4.60
2019-02-09T23:52:38.752Z,4.70
2019-02-09T23:55:09.096Z,4.70
2019-02-09T23:57:38.564Z,4.80
